createdAt,value
2022-08-11T00:01:25.560Z,5.05
2022-08-11T00:04:02.580Z,5.55
2022-08-11T00:06:39.601Z,5.43
2022-08-11T00:09:11.440Z,5.50
2022-08-11T00:11:46.706Z,5.50
2022-08-11T00:14:15.916Z,4.97
2022-08-11T00:16:43.379Z,5.75
2022-08-11T00:19:17.683Z,5.38
2022-08-11T00:22:06.322Z,5.53
2022-08-11T00:24:53.284Z,4.90
2022-08-11T00:27:36.356Z,5.75
2022-08-11T00:30:20.713Z,5.07
2022-08-11T00:32:56.380Z,4.78
2022-08-11T00:35:51.414Z,5.43
2022-08-11T00:38:27.590Z,5.05
2022-08-11T00:41:28.745Z,5.65
2022-08-11T00:44:12.499Z,5.72
2022-08-11T00:47:05.517Z,4.78
2022-08-11T00:49:40.984Z,5.40
2022-08-11T00:52:25.555Z,5.55
2022-08-11T00:54:58.828Z,4.90
2022-08-11T00:57:51.502Z,5.10
2022-08-11T01:00:23.409Z,5.43
2022-08-11T01:03:03.380Z,5.45
2022-08-11T01:06:01.479Z,5.78
2022-08-11T01:11:19.395Z,5.55
2022-08-11T01:13:53.606Z,5.45
2022-08-11T01:16:39.673Z,5.15
2022-08-11T01:19:16.684Z,5.32
2022-08-11T01:21:49.871Z,5.07
2022-08-11T01:24:23.488Z,5.57
2022-08-11T01:27:19.021Z,4.72
2022-08-11T01:30:12.594Z,5.28
2022-08-11T01:32:55.294Z,5.50
2022-08-11T01:35:35.659Z,5.28
2022-08-11T01:38:21.976Z,5.82
2022-08-11T01:41:16.453Z,6.03
2022-08-11T01:44:11.368Z,5.72
2022-08-11T01:47:53.638Z,5.72
2022-08-11T01:50:21.581Z,6.10
2022-08-11T01:53:04.533Z,5.82
2022-08-11T01:55:44.272Z,6.03
2022-08-11T01:58:39.531Z,6.00
2022-08-11T02:01:11.809Z,5.25
2022-08-11T02:03:58.504Z,6.07
2022-08-11T02:06:58.246Z,5.72
2022-08-11T02:09:49.636Z,5.78
2022-08-11T02:12:42.467Z,6.05
2022-08-11T02:15:48.609Z,5.80
2022-08-11T02:18:24.618Z,5.75
2022-08-11T02:21:28.575Z,6.00
2022-08-11T02:24:08.181Z,6.28
2022-08-11T02:26:49.668Z,6.18
2022-08-11T02:29:19.892Z,6.03
2022-08-11T02:32:38.814Z,6.63
2022-08-11T02:35:17.288Z,6.60
2022-08-11T02:37:58.577Z,6.20
2022-08-11T02:40:31.462Z,5.82
2022-08-11T02:43:12.605Z,6.35
2022-08-11T02:45:50.001Z,6.97
2022-08-11T02:48:58.491Z,7.37
2022-08-11T02:51:53.808Z,6.95
2022-08-11T02:54:48.528Z,6.53
2022-08-11T02:57:23.234Z,6.22
2022-08-11T03:00:16.043Z,6.40
2022-08-11T03:02:57.353Z,6.05
2022-08-11T03:05:47.652Z,5.97
2022-08-11T03:08:18.709Z,6.50
2022-08-11T03:11:24.208Z,6.22
2022-08-11T03:14:28.233Z,6.70
2022-08-11T03:17:24.648Z,6.10
2022-08-11T03:20:00.934Z,6.18
2022-08-11T03:22:41.625Z,6.43
2022-08-11T03:25:31.683Z,6.15
2022-08-11T03:28:10.647Z,6.22
2022-08-11T03:30:44.449Z,6.38
2022-08-11T03:33:39.675Z,6.80
2022-08-11T03:36:28.523Z,6.28
2022-08-11T03:39:13.570Z,6.15
2022-08-11T03:42:01.697Z,7.05
2022-08-11T03:44:57.719Z,6.10
2022-08-11T03:47:24.899Z,6.88
2022-08-11T03:49:55.146Z,7.30
2022-08-11T03:52:29.696Z,6.75
2022-08-11T03:55:22.001Z,7.07
2022-08-11T03:58:07.684Z,6.80
2022-08-11T04:00:54.012Z,6.85
2022-08-11T04:03:35.663Z,5.85
2022-08-11T04:06:28.243Z,6.40
2022-08-11T04:09:11.523Z,6.97
2022-08-11T04:11:46.786Z,6.70
2022-08-11T04:14:58.666Z,5.88
2022-08-11T04:17:44.645Z,6.13
2022-08-11T04:20:40.758Z,5.63
2022-08-11T10:24:06.203Z,1.30
2022-08-11T10:26:53.854Z,1.50
2022-08-11T10:29:49.666Z,1.50
2022-08-11T10:32:57.271Z,1.20
2022-08-11T10:35:34.674Z,1.20
2022-08-11T10:38:08.522Z,1.20
2022-08-11T10:41:14.865Z,1.30
2022-08-11T10:44:03.344Z,1.10
2022-08-11T10:46:55.804Z,1.30
2022-08-11T10:49:23.661Z,1.67
2022-08-11T10:52:18.973Z,1.13
2022-08-11T10:55:07.886Z,1.30
2022-08-11T10:58:04.784Z,0.90
2022-08-11T11:00:32.572Z,1.30
2022-08-11T11:03:23.307Z,1.52
2022-08-11T11:06:28.063Z,1.33
2022-08-11T11:09:04.443Z,1.30
2022-08-11T11:11:53.604Z,1.10
2022-08-11T11:17:20.337Z,1.45
2022-08-11T11:19:54.759Z,1.42
2022-08-11T11:22:44.543Z,1.23
2022-08-11T11:25:35.563Z,1.52
2022-08-11T11:28:22.274Z,1.08
2022-08-11T11:31:10.598Z,1.40
2022-08-11T11:34:11.912Z,1.20
2022-08-11T11:36:54.694Z,1.05
2022-08-11T11:39:23.527Z,1.35
2022-08-11T11:41:52.671Z,1.20
2022-08-11T11:44:27.841Z,0.90
2022-08-11T11:46:56.716Z,1.45
2022-08-11T11:49:25.689Z,1.23
2022-08-11T11:52:00.723Z,1.20
2022-08-11T11:54:29.403Z,1.27
2022-08-11T11:56:57.491Z,1.33
2022-08-11T11:59:53.813Z,1.10
2022-08-11T12:02:24.782Z,1.20
2022-08-11T12:04:51.986Z,1.25
2022-08-11T12:07:44.803Z,1.10
2022-08-11T12:10:12.172Z,1.08
2022-08-11T12:16:32.299Z,1.17
2022-08-11T12:18:33.609Z,1.33
2022-08-11T12:21:02.525Z,0.90
2022-08-11T12:24:04.537Z,1.20
2022-08-11T12:27:15.634Z,1.10
2022-08-11T12:29:55.554Z,0.90
2022-08-11T12:32:25.928Z,1.33
2022-08-11T12:35:09.663Z,1.30
2022-08-11T12:37:41.518Z,1.10
2022-08-11T12:41:11.680Z,0.98
2022-08-11T12:43:56.325Z,1.20
2022-08-11T12:46:32.167Z,1.10
2022-08-11T12:49:23.289Z,1.13
2022-08-11T12:52:13.866Z,1.08
2022-08-11T12:54:48.065Z,1.05
2022-08-11T12:57:45.996Z,0.85
2022-08-11T13:00:32.402Z,1.10
2022-08-11T13:03:25.853Z,1.00
2022-08-11T13:06:03.734Z,0.98
2022-08-11T13:11:24.403Z,1.02
2022-08-11T13:13:59.125Z,1.00
2022-08-11T13:16:29.897Z,0.90
2022-08-11T13:18:58.177Z,1.17
2022-08-11T13:21:32.978Z,1.20
2022-08-11T13:24:10.666Z,1.25
2022-08-11T13:27:00.647Z,1.00
2022-08-11T13:29:29.384Z,0.95
2022-08-11T13:32:09.796Z,1.08
2022-08-11T13:34:41.761Z,1.00
2022-08-11T13:37:19.790Z,1.00
2022-08-11T13:40:07.532Z,0.90
2022-08-11T13:42:41.651Z,0.60
2022-08-11T13:45:09.424Z,0.90
2022-08-11T13:47:39.591Z,0.80
2022-08-11T13:50:16.934Z,0.85
2022-08-11T13:52:44.624Z,0.82
2022-08-11T13:55:51.153Z,0.70
2022-08-11T13:58:19.083Z,0.93
2022-08-11T14:01:11.270Z,0.88
2022-08-11T14:04:30.017Z,0.90
2022-08-11T14:06:52.779Z,1.02
2022-08-11T14:09:29.431Z,0.70
2022-08-11T14:12:28.932Z,1.23
2022-08-11T14:15:12.750Z,1.20
2022-08-11T14:17:49.260Z,1.00
2022-08-11T14:20:39.394Z,0.82
2022-08-11T14:23:19.793Z,0.70
2022-08-11T14:26:12.551Z,0.80
2022-08-11T14:28:47.062Z,0.73
2022-08-11T14:31:17.291Z,0.73
2022-08-11T14:34:00.789Z,0.60
2022-08-11T14:36:43.832Z,0.85
2022-08-11T14:39:17.117Z,0.80
2022-08-11T14:42:13.417Z,0.60
2022-08-11T14:45:09.895Z,1.02
2022-08-11T14:47:53.223Z,0.93
2022-08-11T14:50:34.450Z,0.90
2022-08-11T14:53:18.747Z,0.82
2022-08-11T14:56:05.270Z,0.73
2022-08-11T14:58:40.805Z,0.80
2022-08-11T15:01:28.289Z,1.00
2022-08-11T15:04:25.038Z,0.70
2022-08-11T15:06:50.910Z,0.52
2022-08-11T15:09:25.928Z,1.10
2022-08-11T15:12:31.250Z,0.55
2022-08-11T15:15:21.897Z,0.90
2022-08-11T15:17:50.831Z,0.60
2022-08-11T15:20:43.929Z,0.73
2022-08-11T15:23:36.254Z,0.80
2022-08-11T15:26:20.798Z,0.90
2022-08-11T15:29:08.581Z,1.00
2022-08-11T15:32:03.362Z,0.75
2022-08-11T15:34:49.421Z,0.93
2022-08-11T15:37:34.045Z,1.20
2022-08-11T15:40:43.521Z,1.10
2022-08-11T15:43:39.885Z,1.10
2022-08-11T15:46:22.709Z,0.93
2022-08-11T15:49:00.892Z,1.00
2022-08-11T15:51:31.301Z,1.40
2022-08-11T15:54:00.303Z,1.10
2022-08-11T15:56:42.728Z,1.70
2022-08-11T15:59:41.640Z,1.45
2022-08-11T16:02:19.019Z,1.10
2022-08-11T16:04:47.294Z,1.20
2022-08-11T16:07:16.146Z,1.30
2022-08-11T16:10:00.474Z,1.17
2022-08-11T16:12:32.695Z,1.20
2022-08-11T16:15:27.786Z,1.30
2022-08-11T16:17:58.394Z,1.15
2022-08-11T16:20:26.831Z,1.17
2022-08-11T16:23:03.832Z,1.33
2022-08-11T16:27:03.663Z,1.40
2022-08-11T16:28:34.938Z,1.30
2022-08-11T16:31:10.795Z,1.20
2022-08-11T16:33:50.175Z,1.33
2022-08-11T16:36:38.115Z,1.40
2022-08-11T16:39:21.702Z,1.25
2022-08-11T16:42:08.883Z,1.40
2022-08-11T16:45:24.747Z,1.52
2022-08-11T16:48:03.154Z,1.40
2022-08-11T16:50:46.856Z,1.40
2022-08-11T16:53:15.590Z,1.60
2022-08-11T16:55:52.722Z,1.38
2022-08-11T16:58:47.922Z,1.50
2022-08-11T17:01:15.683Z,1.63
2022-08-11T17:04:10.844Z,1.38
2022-08-11T17:06:58.123Z,1.67
2022-08-11T17:09:50.921Z,1.60
2022-08-11T17:12:39.315Z,1.50
2022-08-11T17:15:35.853Z,1.85
2022-08-11T17:18:03.967Z,1.77
2022-08-11T17:20:41.017Z,1.92
2022-08-11T17:23:36.847Z,1.58
2022-08-11T17:26:10.766Z,1.30
2022-08-11T17:28:44.965Z,1.70
2022-08-11T17:31:33.162Z,1.52
2022-08-11T17:34:25.849Z,2.20
2022-08-11T17:36:54.082Z,1.77
2022-08-11T17:39:22.002Z,1.92
2022-08-11T17:42:13.987Z,1.90
2022-08-11T17:45:00.620Z,2.00
2022-08-11T17:47:53.972Z,1.73
2022-08-11T17:50:21.748Z,1.85
2022-08-11T17:53:14.888Z,1.90
2022-08-11T17:56:01.715Z,1.80
2022-08-11T17:58:54.872Z,1.90
2022-08-11T18:01:24.466Z,1.83
2022-08-11T18:03:57.559Z,1.98
2022-08-11T18:06:41.612Z,2.00
2022-08-11T18:09:29.136Z,2.25
2022-08-11T18:12:21.754Z,1.88
2022-08-11T18:15:09.043Z,1.70
2022-08-11T18:18:02.894Z,1.85
2022-08-11T18:20:49.042Z,1.85
2022-08-11T18:23:49.807Z,2.13
2022-08-11T18:26:43.202Z,2.00
2022-08-11T18:29:41.891Z,1.92
2022-08-11T18:32:46.211Z,2.10
2022-08-11T18:35:42.924Z,1.88
2022-08-11T18:38:30.693Z,1.77
2022-08-11T18:41:29.885Z,1.98
2022-08-11T18:44:25.352Z,2.00
2022-08-11T18:47:20.052Z,2.00
2022-08-11T18:50:12.176Z,1.88
2022-08-11T18:53:10.021Z,2.47
2022-08-11T18:55:55.869Z,1.63
2022-08-11T18:58:52.937Z,2.00
2022-08-11T19:01:44.222Z,1.75
2022-08-11T19:04:40.105Z,2.10
2022-08-11T19:07:27.519Z,2.00
2022-08-11T19:10:22.189Z,1.92
2022-08-11T19:13:08.875Z,1.88
2022-08-11T19:16:01.988Z,2.20
2022-08-11T19:18:52.532Z,1.85
2022-08-11T19:21:46.995Z,2.20
2022-08-11T19:24:41.469Z,2.38
2022-08-11T19:27:36.901Z,2.15
2022-08-11T19:30:23.066Z,2.38
2022-08-11T19:33:17.991Z,2.08
2022-08-11T19:36:24.347Z,2.35
2022-08-11T19:39:20.058Z,2.40
2022-08-11T19:42:06.286Z,2.40
2022-08-11T19:44:59.147Z,2.35
2022-08-11T19:47:46.060Z,2.33
2022-08-11T19:50:42.044Z,2.22
2022-08-11T19:53:29.380Z,2.30
2022-08-11T19:56:21.899Z,2.38
2022-08-11T19:59:08.150Z,2.60
2022-08-11T20:02:14.268Z,2.42
2022-08-11T20:05:01.109Z,2.60
2022-08-11T20:07:54.983Z,2.42
2022-08-11T20:10:41.973Z,2.65
2022-08-11T20:13:36.039Z,2.55
2022-08-11T20:16:28.955Z,2.22
2022-08-11T20:19:26.152Z,2.55
2022-08-11T20:22:28.839Z,2.50
2022-08-11T20:25:30.292Z,2.78
2022-08-11T20:28:18.149Z,2.40
2022-08-11T20:31:11.988Z,2.58
2022-08-11T20:33:58.619Z,2.70
2022-08-11T20:36:54.486Z,2.90
2022-08-11T20:39:41.189Z,2.80
2022-08-11T20:42:33.942Z,2.85
2022-08-11T20:45:23.283Z,2.70
2022-08-11T20:48:17.368Z,2.80
2022-08-11T20:51:06.235Z,3.05
2022-08-11T20:54:05.757Z,2.97
2022-08-11T20:56:54.099Z,3.40
2022-08-11T20:59:50.686Z,2.60
2022-08-11T21:02:44.543Z,2.85
2022-08-11T21:06:09.396Z,2.60
2022-08-11T21:08:54.364Z,3.00
2022-08-11T21:11:56.959Z,2.85
2022-08-11T21:14:44.760Z,3.22
2022-08-11T21:17:38.270Z,3.20
2022-08-11T21:20:44.017Z,3.00
2022-08-11T21:23:38.118Z,3.05
2022-08-11T21:26:33.740Z,3.20
2022-08-11T21:29:26.950Z,2.80
2022-08-11T21:32:17.575Z,3.22
2022-08-11T21:35:11.972Z,3.50
2022-08-11T21:37:58.221Z,3.15
2022-08-11T21:40:52.165Z,3.50
2022-08-11T21:43:38.201Z,3.67
2022-08-11T21:46:33.683Z,2.90
2022-08-11T21:49:22.809Z,3.33
2022-08-11T21:52:15.955Z,3.67
2022-08-11T21:55:02.096Z,3.40
2022-08-11T21:57:59.259Z,3.97
2022-08-11T22:00:45.282Z,3.95
2022-08-11T22:03:50.070Z,3.58
2022-08-11T22:06:40.780Z,3.80
2022-08-11T22:09:34.108Z,3.60
2022-08-11T22:12:34.062Z,3.75
2022-08-11T22:15:28.079Z,3.83
2022-08-11T22:18:13.930Z,3.30
2022-08-11T22:21:56.200Z,4.20
2022-08-11T22:24:40.960Z,3.55
2022-08-11T22:27:35.906Z,4.18
2022-08-11T22:30:22.105Z,4.50
2022-08-11T22:33:15.193Z,3.63
2022-08-11T22:36:02.174Z,4.57
2022-08-11T22:38:56.991Z,4.13
2022-08-11T22:41:45.514Z,4.45
2022-08-11T22:44:37.993Z,4.38
2022-08-11T22:47:27.348Z,4.82
2022-08-11T22:50:23.020Z,4.68
2022-08-11T22:53:10.698Z,4.90
2022-08-11T22:56:03.012Z,5.18
2022-08-11T22:58:49.552Z,5.07
2022-08-11T23:01:56.384Z,5.38
2022-08-11T23:04:53.261Z,5.25
2022-08-11T23:07:51.086Z,5.78
2022-08-11T23:10:38.809Z,5.40
2022-08-11T23:13:31.977Z,6.00
2022-08-11T23:16:18.343Z,5.90
2022-08-11T23:19:12.215Z,5.82
2022-08-11T23:21:58.463Z,6.28
2022-08-11T23:24:57.982Z,6.00
2022-08-11T23:27:50.598Z,6.47
2022-08-11T23:30:43.101Z,6.10
2022-08-11T23:33:31.085Z,6.55
2022-08-11T23:36:36.286Z,6.77
2022-08-11T23:39:30.048Z,6.80
2022-08-11T23:42:24.197Z,6.97
2022-08-11T23:45:11.825Z,7.15
2022-08-11T23:48:05.194Z,6.72
2022-08-11T23:50:51.467Z,7.55
2022-08-11T23:53:44.270Z,8.27
2022-08-11T23:56:33.120Z,7.22
